Terminal Aerodrome Forecast
Issued by NWS

Home | Current Version | Previous Version | Text Only | Print | Product List | Glossary On
Versions: 1 2 3 4 5 6 7 8 9 10 11 12 13 14 15 16 17
000
FTUS41 KCAR 030520
TAFBHB
TAF
KBHB 030520Z 0306/0406 19005KT P6SM OVC100
      TEMPO 0309/0312 5SM BR SCT008
     FM031500 19006KT P6SM SCT050
     FM031800 21011KT P6SM SKC
      AMD LTD TO CLD VIS AND WIND=

USA.gov is the U.S. government's official web portal to all federal, state and local government web resources and services.